createdAt,value
2019-04-23T00:04:13.267Z,30.33
2019-04-23T00:06:45.565Z,30.35
2019-04-23T00:09:22.351Z,30.39
2019-04-23T00:11:46.163Z,30.43
2019-04-23T00:14:15.202Z,30.43
2019-04-23T00:16:44.044Z,30.45
2019-04-23T00:19:11.616Z,30.48
2019-04-23T00:21:57.370Z,30.49
2019-04-23T00:29:53.811Z,30.53
2019-04-23T00:34:50.104Z,30.56
2019-04-23T00:39:46.747Z,30.59
2019-04-23T00:42:22.055Z,30.65
2019-04-23T00:44:52.370Z,30.68
2019-04-23T00:47:19.287Z,30.66
2019-04-23T00:49:53.358Z,30.71
2019-04-23T00:52:24.379Z,30.73
2019-04-23T00:54:49.116Z,30.72
2019-04-23T00:59:53.769Z,30.79
2019-04-23T01:02:16.650Z,30.79
2019-04-23T01:04:48.004Z,30.79
2019-04-23T01:07:18.771Z,30.83
2019-04-23T01:09:52.439Z,30.84
2019-04-23T01:12:22.843Z,30.85
2019-04-23T01:14:48.154Z,30.89
2019-04-23T01:17:29.824Z,30.88
2019-04-23T01:20:04.852Z,30.92
2019-04-23T01:22:14.695Z,30.90
2019-04-23T01:24:48.871Z,30.92
2019-04-23T01:27:51.301Z,30.96
2019-04-23T01:30:13.935Z,31.00
2019-04-23T01:32:41.028Z,31.02
2019-04-23T01:35:17.756Z,31.03
2019-04-23T01:40:18.799Z,31.04
2019-04-23T01:43:05.495Z,31.07
2019-04-23T01:45:21.799Z,31.10
2019-04-23T01:50:21.847Z,31.12
2019-04-23T01:55:22.672Z,31.18
2019-04-23T01:57:56.411Z,31.19
2019-04-23T02:00:22.795Z,31.20
2019-04-23T02:03:06.075Z,31.22
2019-04-23T02:05:22.890Z,31.25
2019-04-23T02:07:50.919Z,31.25
2019-04-23T02:10:29.577Z,31.29
2019-04-23T02:17:53.669Z,31.36
2019-04-23T02:20:22.015Z,31.35
2019-04-23T02:23:15.910Z,31.37
2019-04-23T02:28:09.169Z,31.43
2019-04-23T02:30:57.805Z,31.43
2019-04-23T02:33:31.829Z,31.47
2019-04-23T02:40:58.909Z,31.50
2019-04-23T02:45:59.127Z,31.56
2019-04-23T02:50:53.938Z,31.59
2019-04-23T03:01:06.869Z,31.65
2019-04-23T03:03:28.188Z,31.66
2019-04-23T03:05:54.569Z,31.69
2019-04-23T03:10:59.656Z,31.71
2019-04-23T03:16:06.418Z,31.73
2019-04-23T03:18:53.865Z,31.75
2019-04-23T03:21:25.617Z,31.77
2019-04-23T03:26:36.859Z,31.78
2019-04-23T03:29:04.021Z,31.81
2019-04-23T03:32:48.189Z,31.84
2019-04-23T03:36:56.471Z,31.87
2019-04-23T03:38:51.747Z,31.86
2019-04-23T03:41:30.028Z,31.90
2019-04-23T03:43:59.348Z,31.93
2019-04-23T03:46:33.182Z,31.94
2019-04-23T03:49:32.271Z,31.95
2019-04-23T03:54:26.213Z,31.97
2019-04-23T03:58:59.667Z,31.99
2019-04-23T04:01:29.226Z,32.01
2019-04-23T04:06:43.272Z,32.01
2019-04-23T04:09:06.142Z,32.04
2019-04-23T04:14:18.319Z,32.08
2019-04-23T04:16:36.163Z,32.08
2019-04-23T04:19:29.349Z,32.09
2019-04-23T04:21:52.997Z,32.09
2019-04-23T04:34:11.303Z,32.12
2019-04-23T04:36:58.857Z,32.14
2019-04-23T04:39:19.528Z,32.15
2019-04-23T04:41:31.233Z,32.16
2019-04-23T04:44:21.835Z,32.17
2019-04-23T04:51:37.630Z,32.16
2019-04-23T04:54:12.662Z,32.18
2019-04-23T04:56:36.068Z,32.17
2019-04-23T04:59:11.587Z,32.16
2019-04-23T05:01:28.609Z,32.16
2019-04-23T05:04:18.226Z,32.15
2019-04-23T05:06:48.747Z,32.14
2019-04-23T05:09:25.056Z,32.16
2019-04-23T05:11:51.858Z,32.15
2019-04-23T05:14:08.157Z,32.15
2019-04-23T05:16:38.808Z,32.14
2019-04-23T05:19:20.351Z,32.13
2019-04-23T05:21:46.904Z,32.15
2019-04-23T05:24:08.756Z,32.11
2019-04-23T05:26:27.656Z,32.09
2019-04-23T05:29:04.796Z,32.09
2019-04-23T05:31:27.984Z,32.08
2019-04-23T05:34:03.076Z,32.08
2019-04-23T05:36:37.824Z,32.07
2019-04-23T05:39:12.030Z,32.04
2019-04-23T05:41:38.454Z,32.02
2019-04-23T05:44:10.423Z,32.01
2019-04-23T05:46:37.787Z,31.99
2019-04-23T05:49:07.660Z,31.99
2019-04-23T05:51:48.883Z,31.97
2019-04-23T05:54:06.731Z,31.97
2019-04-23T05:56:36.891Z,31.94
2019-04-23T05:59:06.595Z,31.92
2019-04-23T06:04:14.088Z,31.87
2019-04-23T06:09:09.139Z,31.82
2019-04-23T06:11:45.048Z,31.79
2019-04-23T06:19:11.103Z,31.70
2019-04-23T06:21:44.266Z,31.67
2019-04-23T06:24:16.735Z,31.64
2019-04-23T06:26:49.187Z,31.60
2019-04-23T06:29:16.218Z,31.56
2019-04-23T06:31:38.043Z,31.55
2019-04-23T06:34:12.070Z,31.46
2019-04-23T06:36:36.899Z,31.42
2019-04-23T06:39:03.809Z,31.40
2019-04-23T06:49:22.073Z,31.23
2019-04-23T06:54:24.431Z,31.16
2019-04-23T06:56:54.397Z,31.11
2019-04-23T06:59:19.933Z,31.08
2019-04-23T07:01:57.621Z,31.04
2019-04-23T07:04:18.084Z,31.04
2019-04-23T07:06:46.761Z,30.98
2019-04-23T07:11:39.043Z,30.93
2019-04-23T07:14:35.913Z,30.88
2019-04-23T07:16:47.000Z,30.86
2019-04-23T07:19:27.252Z,30.83
2019-04-23T07:21:42.155Z,30.79
2019-04-23T07:29:18.955Z,30.72
2019-04-23T07:34:18.097Z,30.66
2019-04-23T07:36:50.836Z,30.62
2019-04-23T07:39:25.056Z,30.62
2019-04-23T07:42:09.456Z,30.57
2019-04-23T07:44:42.485Z,30.56
2019-04-23T07:47:25.243Z,30.56
2019-04-23T07:49:52.231Z,30.55
2019-04-23T07:52:24.000Z,30.50
2019-04-23T07:54:58.608Z,30.50
2019-04-23T07:59:50.283Z,30.45
2019-04-23T08:02:19.367Z,30.42
2019-04-23T08:07:24.722Z,30.37
2019-04-23T08:10:01.996Z,30.34
2019-04-23T08:14:54.712Z,30.29
2019-04-23T08:17:20.983Z,30.26
2019-04-23T08:22:25.846Z,30.22
2019-04-23T08:24:57.310Z,30.17
2019-04-23T08:27:24.967Z,30.16
2019-04-23T08:30:00.521Z,30.13
2019-04-23T08:32:27.758Z,30.08
2019-04-23T08:37:46.713Z,30.03
2019-04-23T08:40:01.896Z,30.01
2019-04-23T08:48:04.260Z,29.93
2019-04-23T08:50:29.668Z,29.91
2019-04-23T08:53:09.962Z,29.87
2019-04-23T08:55:32.581Z,29.83
2019-04-23T08:57:50.003Z,29.81
2019-04-23T09:00:32.648Z,29.80
2019-04-23T09:03:02.741Z,29.76
2019-04-23T09:05:35.586Z,29.73
2019-04-23T09:08:08.311Z,29.68
2019-04-23T09:10:30.058Z,29.66
2019-04-23T09:13:02.763Z,29.65
2019-04-23T09:15:33.503Z,29.62
2019-04-23T09:23:01.905Z,29.27
2019-04-23T09:25:38.461Z,29.21
2019-04-23T09:27:59.463Z,29.13
2019-04-23T09:30:26.892Z,28.99
2019-04-23T09:33:06.813Z,29.00
2019-04-23T09:35:30.935Z,28.96
2019-04-23T09:38:10.193Z,28.94
2019-04-23T09:41:09.778Z,28.87
2019-04-23T09:43:31.481Z,28.85
2019-04-23T09:48:44.269Z,28.87
2019-04-23T09:51:07.954Z,28.89
2019-04-23T09:53:41.151Z,28.92
2019-04-23T09:56:06.819Z,28.90
2019-04-23T09:58:46.324Z,28.91
2019-04-23T10:03:50.805Z,29.04
2019-04-23T10:06:14.617Z,29.04
2019-04-23T10:08:42.961Z,29.06
2019-04-23T10:11:09.520Z,29.06
2019-04-23T10:13:38.669Z,29.07
2019-04-23T10:16:10.245Z,29.08
2019-04-23T10:18:37.468Z,29.06
2019-04-23T10:21:07.560Z,29.00
2019-04-23T10:23:37.024Z,29.02
2019-04-23T10:26:06.177Z,29.02
2019-04-23T10:28:40.256Z,28.99
2019-04-23T10:31:09.096Z,28.90
2019-04-23T10:33:38.055Z,28.83
2019-04-23T10:36:11.642Z,28.78
2019-04-23T10:38:41.556Z,28.70
2019-04-23T10:41:07.250Z,28.65
2019-04-23T10:43:39.477Z,28.59
2019-04-23T10:46:43.120Z,28.49
2019-04-23T10:50:17.174Z,28.42
2019-04-23T10:54:37.651Z,28.39
2019-04-23T10:56:59.772Z,28.36
2019-04-23T11:07:26.369Z,28.06
2019-04-23T11:15:18.362Z,27.81
2019-04-23T11:25:21.609Z,27.54
2019-04-23T11:27:42.476Z,27.48
2019-04-23T11:30:33.526Z,27.41
2019-04-23T11:35:21.568Z,27.36
2019-04-23T11:40:16.975Z,27.34
2019-04-23T11:42:49.562Z,27.32
2019-04-23T11:45:24.783Z,27.29
2019-04-23T11:50:18.901Z,27.28
2019-04-23T11:55:30.958Z,27.26
2019-04-23T12:00:31.769Z,27.31
2019-04-23T12:02:50.003Z,27.35
2019-04-23T12:05:50.621Z,27.44
2019-04-23T12:08:17.898Z,27.43
2019-04-23T12:11:10.075Z,27.49
2019-04-23T12:15:53.990Z,27.70
2019-04-23T12:18:30.246Z,27.74
2019-04-23T12:20:49.084Z,27.85
2019-04-23T12:25:58.261Z,28.02
2019-04-23T12:28:20.645Z,28.18
2019-04-23T12:30:50.146Z,28.39
2019-04-23T12:33:31.497Z,28.45
2019-04-23T12:35:50.073Z,28.58
2019-04-23T12:43:25.625Z,28.87
2019-04-23T12:45:47.366Z,28.92
2019-04-23T12:48:35.113Z,28.94
2019-04-23T12:51:08.750Z,29.02
2019-04-23T12:55:50.481Z,29.10
2019-04-23T13:05:47.225Z,29.35
2019-04-23T13:08:34.048Z,29.40
2019-04-23T13:10:49.674Z,29.46
2019-04-23T13:13:31.485Z,29.46
2019-04-23T13:15:53.271Z,29.52
2019-04-23T13:21:01.484Z,29.60
2019-04-23T13:25:57.606Z,29.73
2019-04-23T13:28:35.186Z,29.73
2019-04-23T13:31:06.664Z,29.76
2019-04-23T13:33:40.971Z,29.76
2019-04-23T13:38:38.315Z,29.92
2019-04-23T13:48:24.934Z,29.97
2019-04-23T13:51:08.887Z,30.02
2019-04-23T13:53:42.830Z,30.05
2019-04-23T13:56:15.197Z,30.10
2019-04-23T13:58:38.854Z,30.18
2019-04-23T14:03:41.407Z,30.25
2019-04-23T14:06:16.494Z,30.33
2019-04-23T14:08:48.582Z,30.34
2019-04-23T14:11:19.430Z,30.39
2019-04-23T14:13:49.728Z,30.36
2019-04-23T14:24:03.446Z,30.47
2019-04-23T14:26:23.252Z,30.50
2019-04-23T14:28:41.679Z,30.49
2019-04-23T14:31:10.643Z,30.56
2019-04-23T14:33:52.874Z,30.55
2019-04-23T14:36:16.790Z,30.52
2019-04-23T14:38:43.899Z,30.52
2019-04-23T14:43:49.413Z,30.54
2019-04-23T14:48:51.770Z,30.67
2019-04-23T14:51:24.185Z,30.71
2019-04-23T14:53:43.849Z,30.73
2019-04-23T14:56:15.768Z,30.72
2019-04-23T15:03:46.868Z,30.88
2019-04-23T15:06:33.215Z,30.90
2019-04-23T15:13:49.447Z,31.17
2019-04-23T15:24:04.171Z,31.21
2019-04-23T15:27:32.471Z,31.35
2019-04-23T15:28:36.586Z,31.38
2019-04-23T15:31:26.265Z,31.47
2019-04-23T15:34:04.210Z,31.69
2019-04-23T15:36:51.759Z,31.87
2019-04-23T15:39:05.770Z,31.90
2019-04-23T15:41:31.495Z,31.83
2019-04-23T15:44:05.602Z,31.98
2019-04-23T15:49:08.234Z,32.28
2019-04-23T15:54:02.603Z,32.18
2019-04-23T15:56:35.533Z,32.28
2019-04-23T16:01:31.956Z,32.41
2019-04-23T16:03:31.533Z,32.51
2019-04-23T16:06:00.297Z,32.49
2019-04-23T16:09:04.728Z,32.68
2019-04-23T16:11:45.399Z,32.62
2019-04-23T16:19:13.683Z,32.57
2019-04-23T16:21:47.527Z,32.67
2019-04-23T16:24:13.585Z,32.59
2019-04-23T16:26:50.927Z,32.76
2019-04-23T16:29:25.106Z,32.84
2019-04-23T16:31:40.175Z,32.79
2019-04-23T16:34:29.149Z,32.98
2019-04-23T16:36:48.550Z,33.16
2019-04-23T16:39:18.964Z,32.85
2019-04-23T16:44:24.308Z,33.01
2019-04-23T16:46:57.559Z,33.08
2019-04-23T16:51:47.561Z,33.44
2019-04-23T16:54:24.687Z,33.39
2019-04-23T17:02:01.730Z,33.45
2019-04-23T17:04:38.954Z,33.51
2019-04-23T17:06:52.420Z,33.92
2019-04-23T17:09:29.294Z,33.63
2019-04-23T17:12:02.626Z,33.65
2019-04-23T17:14:30.631Z,33.43
2019-04-23T17:16:49.933Z,34.03
2019-04-23T17:19:32.746Z,33.95
2019-04-23T17:22:00.070Z,34.11
2019-04-23T17:24:25.842Z,34.38
2019-04-23T17:27:05.470Z,34.32
2019-04-23T17:29:28.735Z,34.31
2019-04-23T17:31:59.734Z,34.32
2019-04-23T17:34:35.217Z,34.34
2019-04-23T17:37:24.959Z,34.19
2019-04-23T17:40:04.616Z,34.25
2019-04-23T17:47:52.404Z,34.17
2019-04-23T17:50:20.879Z,34.05
2019-04-23T17:52:52.525Z,34.06
2019-04-23T17:55:15.512Z,34.13
2019-04-23T18:00:25.398Z,34.01
2019-04-23T18:05:16.596Z,33.93
2019-04-23T18:07:50.478Z,33.96
2019-04-23T18:15:15.666Z,33.90
2019-04-23T18:20:47.463Z,34.18
2019-04-23T18:25:37.425Z,34.01
2019-04-23T18:28:00.086Z,34.14
2019-04-23T18:30:42.182Z,34.13
2019-04-23T18:33:56.710Z,34.07
2019-04-23T18:35:56.717Z,34.03
2019-04-23T18:38:31.930Z,34.11
2019-04-23T18:43:29.755Z,34.26
2019-04-23T18:48:43.895Z,34.14
2019-04-23T18:56:06.940Z,34.21
2019-04-23T18:58:48.581Z,34.27
2019-04-23T19:01:05.345Z,34.25
2019-04-23T19:06:25.710Z,34.29
2019-04-23T19:11:46.105Z,34.37
2019-04-23T19:14:11.095Z,34.37
2019-04-23T19:16:50.582Z,34.41
2019-04-23T19:19:04.863Z,34.39
2019-04-23T19:22:00.997Z,34.44
2019-04-23T19:24:22.900Z,34.46
2019-04-23T19:29:01.945Z,34.45
2019-04-23T19:36:59.482Z,34.55
2019-04-23T19:41:55.400Z,34.54
2019-04-23T19:44:17.344Z,34.58
2019-04-23T19:46:56.406Z,34.56
2019-04-23T19:54:28.812Z,34.55
2019-04-23T19:59:22.211Z,34.50
2019-04-23T20:01:58.930Z,34.49
2019-04-23T20:04:21.525Z,34.49
2019-04-23T20:09:43.152Z,34.51
2019-04-23T20:14:19.360Z,34.52
2019-04-23T20:19:24.171Z,34.49
2019-04-23T20:22:00.535Z,34.48
2019-04-23T20:24:28.247Z,34.48
2019-04-23T20:26:59.363Z,34.48
2019-04-23T20:29:40.722Z,34.46
2019-04-23T20:34:51.519Z,34.49
2019-04-23T20:37:06.667Z,34.48
2019-04-23T20:39:45.495Z,34.47
2019-04-23T20:42:11.942Z,34.49
2019-04-23T20:47:10.215Z,34.47
2019-04-23T20:49:48.534Z,34.51
2019-04-23T20:52:10.560Z,34.50
2019-04-23T21:03:10.038Z,34.49
2019-04-23T21:05:11.833Z,34.53
2019-04-23T21:10:20.346Z,34.54
2019-04-23T21:13:15.155Z,34.53
2019-04-23T21:15:13.226Z,34.54
2019-04-23T21:20:14.669Z,34.55
2019-04-23T21:22:38.090Z,34.56
2019-04-23T21:25:08.197Z,34.56
2019-04-23T21:27:53.520Z,34.58
2019-04-23T21:30:16.350Z,34.61
2019-04-23T21:32:52.592Z,34.59
2019-04-23T21:35:16.837Z,34.61
2019-04-23T21:37:50.073Z,34.63
2019-04-23T21:40:40.187Z,34.64
2019-04-23T21:45:35.357Z,34.66
2019-04-23T21:50:37.404Z,34.68
2019-04-23T21:52:58.241Z,34.71
2019-04-23T21:55:36.487Z,34.73
2019-04-23T21:58:10.521Z,34.72
2019-04-23T22:00:41.292Z,34.75
2019-04-23T22:03:02.579Z,34.76
2019-04-23T22:05:37.821Z,34.77
2019-04-23T22:08:03.005Z,34.77
2019-04-23T22:10:27.817Z,34.79
2019-04-23T22:15:34.340Z,34.82
2019-04-23T22:17:59.777Z,34.84
2019-04-23T22:20:40.551Z,34.86
2019-04-23T22:25:32.157Z,34.91
2019-04-23T22:27:58.223Z,34.90
2019-04-23T22:30:36.215Z,34.91
2019-04-23T22:33:02.922Z,34.94
2019-04-23T22:35:35.577Z,34.97
2019-04-23T22:40:38.202Z,34.96
2019-04-23T22:45:37.645Z,35.01
2019-04-23T22:48:07.962Z,35.00
2019-04-23T22:53:02.029Z,35.03
2019-04-23T22:55:32.336Z,35.04
2019-04-23T23:00:35.002Z,35.13
2019-04-23T23:03:22.757Z,35.23
2019-04-23T23:08:24.020Z,35.26
2019-04-23T23:10:56.951Z,35.24
2019-04-23T23:13:28.482Z,35.27
2019-04-23T23:16:10.618Z,35.42
2019-04-23T23:18:23.674Z,35.44
2019-04-23T23:21:06.196Z,35.48
2019-04-23T23:23:21.467Z,35.46
2019-04-23T23:26:06.688Z,35.47
2019-04-23T23:28:28.138Z,35.53
2019-04-23T23:31:02.004Z,35.57
2019-04-23T23:35:58.861Z,35.60
2019-04-23T23:38:33.468Z,35.64
2019-04-23T23:41:12.440Z,35.63
2019-04-23T23:48:28.033Z,35.68
2019-04-23T23:51:17.696Z,35.71
2019-04-23T23:53:39.758Z,35.72
